Time;durP1;ratioP1;P1;durP2;ratioP2;P2;SDS_P1;SDS_P2;PMS_P1;PMS_P2;Temp;Humidity;BMP_temperature;BMP_pressure;BME280_temperature;BME280_humidity;BME280_pressure;Samples;Min_cycle;Max_cycle;Signal;HPM_P1;HPM_P2
2022/07/23 00:01:41;;;;;;;5.32;3.67;;;;;;;21.27;100.00;151385.78;5074039;28;20191;-61
2022/07/23 00:04:10;;;;;;;6.95;3.85;;;;;;;21.28;100.00;151388.34;5074094;28;20191;-61
2022/07/23 00:06:36;;;;;;;7.35;4.05;;;;;;;21.37;100.00;151410.00;5074009;28;20191;-61
2022/07/23 00:09:04;;;;;;;6.03;4.25;;;;;;;21.23;100.00;151374.31;5073974;28;20191;-61
2022/07/23 00:11:30;;;;;;;6.68;5.53;;;;;;;21.33;100.00;151401.09;5074269;28;20232;-61
2022/07/23 00:13:58;;;;;;;7.57;4.93;;;;;;;21.34;100.00;151402.38;5074095;28;20180;-60
2022/07/23 00:16:25;;;;;;;9.20;4.68;;;;;;;21.34;100.00;151402.38;5074242;28;20195;-61
2022/07/23 00:18:52;;;;;;;5.78;4.53;;;;;;;21.36;100.00;151407.44;5074354;28;20294;-61
2022/07/23 00:21:20;;;;;;;11.70;4.82;;;;;;;21.38;100.00;151413.84;5073410;28;20188;-61
2022/07/23 00:23:47;;;;;;;19.55;5.18;;;;;;;21.34;100.00;151403.63;5073619;28;20185;-60
2022/07/23 00:26:15;;;;;;;7.90;6.20;;;;;;;21.36;100.00;151408.72;5073351;28;20196;-61
2022/07/23 00:28:42;;;;;;;9.93;5.85;;;;;;;21.37;100.00;151411.28;5074009;28;20220;-60
2022/07/23 00:31:09;;;;;;;13.68;6.00;;;;;;;21.29;100.00;151389.63;5073833;28;20279;-61
2022/07/23 00:33:36;;;;;;;9.10;5.63;;;;;;;21.29;100.00;151390.91;5073488;28;20192;-61
2022/07/23 00:36:03;;;;;;;17.25;5.80;;;;;;;21.40;100.00;151417.66;5073768;28;20211;-60
2022/07/23 00:38:32;;;;;;;14.18;6.20;;;;;;;21.42;100.00;151424.03;5073472;28;20192;-62
2022/07/23 00:40:59;;;;;;;10.38;5.80;;;;;;;21.43;100.00;151426.56;5105384;28;20305;-60
2022/07/23 00:43:26;;;;;;;10.73;5.17;;;;;;;21.24;100.00;151376.88;5073172;28;20193;-61
2022/07/23 00:45:53;;;;;;;19.02;5.30;;;;;;;21.19;100.00;151365.41;5072938;28;20303;-61
2022/07/23 00:48:20;;;;;;;9.40;4.90;;;;;;;21.02;100.00;151320.75;5073288;28;20209;-61
2022/07/23 00:50:47;;;;;;;9.17;5.63;;;;;;;20.87;100.00;151285.13;5073254;28;20185;-61
2022/07/23 00:53:14;;;;;;;12.20;5.43;;;;;;;20.88;100.00;151286.34;5073177;28;20195;-61
2022/07/23 00:55:42;;;;;;;6.88;6.28;;;;;;;20.99;100.00;151314.41;5073262;28;20189;-61
2022/07/23 00:58:10;;;;;;;10.48;6.05;;;;;;;21.02;100.00;151320.75;5073610;28;20181;-61
2022/07/23 01:00:37;;;;;;;14.10;5.30;;;;;;;21.00;100.00;151316.97;5072829;28;20253;-62
2022/07/23 01:03:04;;;;;;;18.97;6.23;;;;;;;21.00;100.00;151316.97;5073567;28;20195;-61
2022/07/23 01:05:31;;;;;;;11.93;6.22;;;;;;;21.03;100.00;151323.31;5072613;28;20185;-62
2022/07/23 01:07:58;;;;;;;15.63;6.85;;;;;;;21.03;100.00;151324.59;5072834;28;20205;-61
2022/07/23 01:10:34;;;;;;;17.52;6.07;;;;;;;21.08;100.00;151337.34;5072791;28;20205;-61
2022/07/23 01:13:04;;;;;;;8.85;5.32;;;;;;;21.06;100.00;151332.22;5072437;28;20238;-61
2022/07/23 01:15:32;;;;;;;21.33;5.97;;;;;;;21.04;100.00;151327.16;5072912;28;20189;-60
2022/07/23 01:17:59;;;;;;;11.23;5.35;;;;;;;21.05;100.00;151329.66;5072353;28;20192;-60
2022/07/23 01:20:27;;;;;;;16.75;5.68;;;;;;;21.00;100.00;151316.97;5072769;28;20556;-61
2022/07/23 01:22:56;;;;;;;11.63;5.53;;;;;;;20.87;100.00;151283.84;5072973;28;20222;-61
2022/07/23 01:25:23;;;;;;;10.10;5.30;;;;;;;20.90;100.00;151291.47;5072414;28;20191;-60
2022/07/23 01:27:50;;;;;;;16.83;5.35;;;;;;;20.82;100.00;151271.09;5072247;28;20220;-61
2022/07/23 01:30:17;;;;;;;11.40;5.20;;;;;;;20.89;100.00;151288.91;5072195;28;20214;-61
2022/07/23 01:32:44;;;;;;;7.18;5.07;;;;;;;20.81;100.00;151269.81;5072103;28;20184;-61
2022/07/23 01:35:11;;;;;;;10.07;5.37;;;;;;;20.52;100.00;151197.22;5072157;28;20191;-61
2022/07/23 01:37:39;;;;;;;10.87;5.37;;;;;;;20.61;100.00;151218.88;5072386;28;20723;-61
2022/07/23 01:40:08;;;;;;;11.67;4.57;;;;;;;20.54;100.00;151199.78;5072364;28;20569;-61
2022/07/23 01:42:36;;;;;;;5.35;4.68;;;;;;;20.58;100.00;151209.97;5072371;28;20548;-62
2022/07/23 01:45:04;;;;;;;10.80;4.65;;;;;;;20.41;100.00;151167.94;5071636;28;20246;-61
2022/07/23 01:47:31;;;;;;;9.37;4.70;;;;;;;20.16;100.00;151105.47;5072171;28;20216;-61
2022/07/23 01:50:00;;;;;;;8.60;4.83;;;;;;;20.01;100.00;151068.56;5071882;28;20181;-61
2022/07/23 01:52:27;;;;;;;7.97;4.78;;;;;;;20.07;100.00;151082.59;5072107;28;20189;-60
2022/07/23 01:54:54;;;;;;;10.90;5.37;;;;;;;19.99;100.00;151062.19;5071975;28;20188;-61
2022/07/23 01:57:22;;;;;;;10.77;4.78;;;;;;;20.01;100.00;151068.56;5072166;28;20207;-61
2022/07/23 01:59:49;;;;;;;11.37;5.07;;;;;;;20.04;100.00;151074.91;5071931;28;20191;-61
2022/07/23 02:02:16;;;;;;;11.50;5.17;;;;;;;20.01;100.00;151067.28;5071734;28;20185;-61
2022/07/23 02:04:43;;;;;;;9.67;5.00;;;;;;;20.12;100.00;151094.00;5072102;28;20212;-61
2022/07/23 02:07:10;;;;;;;8.80;4.77;;;;;;;20.13;100.00;151097.84;5071885;28;20624;-61
2022/07/23 02:09:37;;;;;;;12.93;5.23;;;;;;;20.03;100.00;151072.34;5071687;28;20189;-61
2022/07/23 02:12:04;;;;;;;16.47;6.30;;;;;;;20.22;100.00;151119.50;5071761;28;20224;-62
2022/07/23 02:14:33;;;;;;;12.83;6.33;;;;;;;20.28;100.00;151136.06;5071841;28;20267;-60
2022/07/23 02:17:00;;;;;;;19.07;6.33;;;;;;;20.37;100.00;151159.00;5071936;28;20184;-60
2022/07/23 02:19:27;;;;;;;9.00;6.33;;;;;;;20.41;100.00;151167.94;5103943;28;20195;-61
2022/07/23 02:21:54;;;;;;;15.40;7.63;;;;;;;20.39;100.00;151162.81;5071987;28;20562;-60
2022/07/23 02:24:21;;;;;;;12.90;7.90;;;;;;;20.46;100.00;151180.66;5071855;28;20188;-60
2022/07/23 02:26:48;;;;;;;13.87;7.17;;;;;;;20.46;100.00;151181.91;5071682;28;20189;-61
2022/07/23 02:29:15;;;;;;;25.23;7.35;;;;;;;20.48;100.00;151185.75;5071548;28;20205;-61
2022/07/23 02:31:43;;;;;;;10.13;6.20;;;;;;;20.41;100.00;151167.94;5071830;28;20196;-61
2022/07/23 02:34:11;;;;;;;11.32;6.82;;;;;;;20.31;100.00;151143.75;5071905;28;20246;-61
2022/07/23 02:36:39;;;;;;;17.63;7.70;;;;;;;20.35;100.00;151153.91;5071673;28;20267;-61
2022/07/23 02:39:05;;;;;;;20.60;7.40;;;;;;;20.38;100.00;151160.28;5071492;28;20192;-60
2022/07/23 02:41:32;;;;;;;31.23;8.80;;;;;;;20.38;100.00;151160.28;5071401;28;20185;-61
2022/07/23 02:43:59;;;;;;;24.83;9.77;;;;;;;20.43;100.00;151174.28;5104007;28;20651;-61
2022/07/23 02:46:26;;;;;;;26.73;9.03;;;;;;;20.29;100.00;151137.28;5071461;28;20185;-60
2022/07/23 02:48:54;;;;;;;28.73;10.13;;;;;;;20.41;100.00;151169.19;5071268;28;20216;-60
2022/07/23 02:51:21;;;;;;;39.57;9.90;;;;;;;20.42;100.00;151171.72;5071728;28;20189;-61
2022/07/23 02:53:48;;;;;;;38.47;10.97;;;;;;;20.46;100.00;151180.66;5071604;28;20189;-61
2022/07/23 02:56:15;;;;;;;40.57;12.13;;;;;;;20.46;100.00;151181.91;5073266;28;20647;-61
2022/07/23 02:58:42;;;;;;;26.02;10.13;;;;;;;20.51;100.00;151193.38;5075374;28;20181;-61
2022/07/23 03:01:09;;;;;;;34.22;10.15;;;;;;;20.58;100.00;151209.97;5074985;28;20188;-61
2022/07/23 03:03:36;;;;;;;22.23;8.95;;;;;;;20.59;100.00;151213.75;5074912;28;20247;-61
2022/07/23 03:06:04;;;;;;;22.73;9.93;;;;;;;20.71;100.00;151244.31;5075406;28;20189;-60
2022/07/23 03:08:31;;;;;;;34.87;8.93;;;;;;;20.67;100.00;151234.13;5075042;28;20691;-61
2022/07/23 03:10:58;;;;;;;27.17;9.23;;;;;;;20.75;100.00;151254.50;5075033;28;20205;-60
2022/07/23 03:13:25;;;;;;;30.77;10.43;;;;;;;20.76;100.00;151255.78;5075337;28;20181;-61
2022/07/23 03:15:52;;;;;;;30.90;9.50;;;;;;;20.78;100.00;151262.19;5075127;28;20547;-61
2022/07/23 03:18:19;;;;;;;17.70;9.40;;;;;;;20.69;100.00;151239.25;5074722;28;20185;-60
2022/07/23 03:20:46;;;;;;;20.77;9.20;;;;;;;20.67;100.00;151232.84;5074932;28;20189;-61
2022/07/23 03:23:14;;;;;;;22.35;8.75;;;;;;;20.76;100.00;151255.78;5074621;28;20199;-61
2022/07/23 03:25:41;;;;;;;19.10;7.37;;;;;;;21.14;100.00;151352.66;5073361;28;20200;-62
2022/07/23 03:28:08;;;;;;;16.05;8.20;;;;;;;21.76;100.00;151508.16;5074833;28;20570;-61
2022/07/23 03:30:35;;;;;;;11.63;7.68;;;;;;;22.30;100.00;151645.88;5074476;28;20191;-61
2022/07/23 03:33:02;;;;;;;24.50;8.55;;;;;;;22.81;100.00;151772.19;5074835;28;20544;-60
2022/07/23 03:35:29;;;;;;;20.60;8.57;;;;;;;22.81;100.00;151773.47;5074307;28;20306;-60
2022/07/23 03:37:55;;;;;;;31.70;9.38;;;;;;;22.77;100.00;151763.25;5074508;28;20227;-60
2022/07/23 03:40:24;;;;;;;29.55;10.00;;;;;;;22.77;100.00;151763.25;5074346;28;20188;-60
2022/07/23 03:42:51;;;;;;;25.38;9.80;;;;;;;22.82;100.00;151776.03;5074655;28;20185;-61
2022/07/23 03:45:17;;;;;;;15.77;9.82;;;;;;;22.89;100.00;151793.88;5074784;28;20192;-61
2022/07/23 03:47:44;;;;;;;28.13;9.50;;;;;;;23.02;100.00;151827.03;5074572;28;20185;-62
2022/07/23 03:50:11;;;;;;;25.63;9.90;;;;;;;23.13;100.00;151855.09;5074173;28;20180;-60
2022/07/23 03:52:38;;;;;;;34.03;10.77;;;;;;;23.21;100.00;151875.50;5074676;28;20623;-61
2022/07/23 03:55:06;;;;;;;25.45;10.20;;;;;;;23.23;100.00;151880.63;5074554;28;20520;-61
2022/07/23 03:57:35;;;;;;;25.55;10.57;;;;;;;23.64;100.00;151982.75;5074198;28;20656;-60
2022/07/23 04:00:02;;;;;;;31.42;9.93;;;;;;;24.19;100.00;152121.94;5074180;28;20185;-61
2022/07/23 04:02:29;;;;;;;29.40;10.10;;;;;;;24.55;100.00;152212.59;5074112;28;20271;-61
2022/07/23 04:04:56;;;;;;;23.20;9.40;;;;;;;24.98;100.00;152321.22;5073839;28;20184;-61
2022/07/23 04:07:23;;;;;;;23.80;9.20;;;;;;;25.32;100.00;152406.81;5073591;28;20181;-62
2022/07/23 04:09:50;;;;;;;21.70;8.80;;;;;;;25.49;100.00;152450.28;5073946;28;20223;-60
2022/07/23 04:12:17;;;;;;;24.75;7.90;;;;;;;25.51;100.00;152454.06;5073744;28;20239;-61
2022/07/23 04:14:45;;;;;;;20.90;8.30;;;;;;;25.67;100.00;152496.34;5106329;28;20210;-61
2022/07/23 04:17:12;;;;;;;23.92;8.60;;;;;;;25.74;100.00;152514.22;5073824;28;20623;-61
2022/07/23 04:19:41;;;;;;;30.70;8.00;;;;;;;25.76;100.00;152519.31;5073683;28;20547;-60
2022/07/23 04:22:08;;;;;;;26.30;8.98;;;;;;;25.57;100.00;152469.47;5073796;28;20184;-61
2022/07/23 04:24:36;;;;;;;30.65;8.52;;;;;;;25.51;100.00;152455.34;5073787;28;20193;-61
2022/07/23 04:27:03;;;;;;;22.52;8.27;;;;;;;25.58;100.00;152472.03;5074050;28;20640;-60
2022/07/23 04:29:30;;;;;;;19.73;8.02;;;;;;;25.75;100.00;152516.78;5073798;28;20219;-60
2022/07/23 04:31:58;;;;;;;15.98;7.15;;;;;;;25.75;100.00;152516.78;5073641;28;20185;-61
2022/07/23 04:34:26;;;;;;;23.75;8.32;;;;;;;25.94;100.00;152564.03;5073414;28;20184;-60
2022/07/23 04:36:53;;;;;;;20.65;8.18;;;;;;;26.03;100.00;152585.78;5073134;28;20184;-61
2022/07/23 04:39:20;;;;;;;17.48;8.05;;;;;;;26.13;100.00;152611.38;5073403;28;20227;-60
2022/07/23 04:41:47;;;;;;;29.23;8.60;;;;;;;25.93;100.00;152562.75;5073345;28;20191;-61
2022/07/23 04:44:14;;;;;;;11.02;7.47;;;;;;;25.75;100.00;152516.78;5073262;28;20628;-60
2022/07/23 04:46:41;;;;;;;12.65;7.47;;;;;;;25.85;100.00;152542.31;5072947;28;20189;-61
2022/07/23 04:49:09;;;;;;;25.55;8.20;;;;;;;25.81;100.00;152532.09;5073310;28;20209;-61
2022/07/23 04:51:36;;;;;;;17.73;7.75;;;;;;;25.81;100.00;152530.81;5073679;28;20181;-60
2022/07/23 04:54:03;;;;;;;9.95;7.57;;;;;;;25.88;100.00;152548.72;5073242;28;20533;-60
2022/07/23 04:56:30;;;;;;;15.77;7.80;;;;;;;26.13;100.00;152611.38;5072787;28;20189;-61
2022/07/23 04:58:57;;;;;;;17.27;7.72;;;;;;;26.16;100.00;152619.03;5072750;28;20271;-60
2022/07/23 05:01:24;;;;;;;17.88;8.52;;;;;;;26.32;100.00;152659.97;5072863;28;20196;-60
2022/07/23 05:03:51;;;;;;;18.88;8.50;;;;;;;26.33;100.00;152662.53;5073054;28;20619;-60
2022/07/23 05:06:19;;;;;;;13.65;8.63;;;;;;;26.42;100.00;152685.56;5072602;28;20195;-60
2022/07/23 05:08:46;;;;;;;13.40;7.50;;;;;;;26.54;100.00;152714.94;5072939;28;20578;-60
2022/07/23 05:11:13;;;;;;;16.38;7.43;;;;;;;26.70;100.00;152757.16;5072592;28;20326;-60
2022/07/23 05:13:40;;;;;;;16.42;6.10;;;;;;;27.02;100.00;152836.50;5072689;28;20612;-60
2022/07/23 05:16:07;;;;;;;23.45;6.47;;;;;;;27.29;100.00;152905.56;5072824;28;20195;-60
2022/07/23 05:18:34;;;;;;;20.20;6.55;;;;;;;27.69;100.00;153008.00;5071742;28;20185;-60
2022/07/23 05:21:01;;;;;;;18.65;5.55;;;;;;;28.05;100.00;153097.59;5072680;28;20188;-61
2022/07/23 05:23:29;;;;;;;20.20;5.43;;;;;;;28.22;100.00;153141.13;5072721;28;20654;-61
2022/07/23 05:25:56;;;;;;;32.55;6.20;;;;;;;28.45;100.00;153198.75;5104957;28;20271;-60
2022/07/23 05:28:24;;;;;;;32.92;7.07;;;;;;;28.68;100.00;153256.38;5104248;28;20195;-61
2022/07/23 05:30:50;;;;;;;29.08;7.32;;;;;;;28.93;100.00;153320.44;5072631;28;20201;-60
2022/07/23 05:33:20;;;;;;;18.23;6.60;;;;;;;29.14;100.00;153372.94;5072410;28;20631;-61
2022/07/23 05:35:47;;;;;;;17.02;5.70;;;;;;;29.23;96.93;153397.28;5072216;28;20192;-60
2022/07/23 05:38:14;;;;;;;17.85;6.05;;;;;;;29.34;98.57;153425.50;5072422;28;20207;-61
2022/07/23 05:40:42;;;;;;;21.92;6.57;;;;;;;29.53;93.36;153471.63;5072178;28;20185;-60
2022/07/23 05:43:09;;;;;;;20.48;6.53;;;;;;;29.57;91.72;153483.19;5072226;28;20188;-60
2022/07/23 05:45:36;;;;;;;16.90;6.18;;;;;;;29.58;92.70;153484.47;5072229;28;20189;-61
2022/07/23 05:48:03;;;;;;;20.98;5.53;;;;;;;29.66;90.66;153506.25;5072220;28;20296;-61
2022/07/23 05:50:30;;;;;;;11.10;5.30;;;;;;;29.80;89.33;153540.78;5072330;28;20692;-61
2022/07/23 05:52:57;;;;;;;8.63;5.60;;;;;;;30.10;87.81;153617.72;5072153;28;20628;-60
2022/07/23 05:55:24;;;;;;;14.50;5.30;;;;;;;30.27;86.48;153661.31;5072062;28;20572;-60
2022/07/23 05:57:52;;;;;;;9.70;5.40;;;;;;;30.56;85.04;153733.13;5071993;28;20242;-60
2022/07/23 06:00:19;;;;;;;18.25;5.82;;;;;;;30.62;83.88;153748.53;5072043;28;20258;-60
2022/07/23 06:02:46;;;;;;;20.75;5.80;;;;;;;30.89;84.92;153817.78;5104460;28;20193;-61
2022/07/23 06:05:13;;;;;;;15.35;5.97;;;;;;;30.94;82.88;153830.56;5072506;28;20200;-60
2022/07/23 06:07:40;;;;;;;10.50;4.70;;;;;;;31.08;80.36;153866.53;5071758;28;20191;-60
2022/07/23 06:10:08;;;;;;;17.88;5.85;;;;;;;31.61;77.97;153999.97;5071808;28;20224;-60
2022/07/23 06:12:35;;;;;;;13.85;5.00;;;;;;;32.27;74.32;154168.06;5071677;28;20228;-60
2022/07/23 06:15:05;;;;;;;9.05;4.47;;;;;;;32.60;70.34;154251.47;5071850;28;20238;-60
2022/07/23 06:17:32;;;;;;;8.02;4.57;;;;;;;32.90;67.13;154327.25;5070457;28;20196;-61
2022/07/23 06:19:59;;;;;;;7.45;4.20;;;;;;;33.33;68.65;154437.72;5071825;28;20194;-61
2022/07/23 06:22:26;;;;;;;12.18;4.45;;;;;;;33.50;67.76;154480.06;5071884;28;20632;-59
2022/07/23 06:24:53;;;;;;;11.02;4.78;;;;;;;33.81;66.34;154558.47;5071585;28;20195;-60
2022/07/23 06:27:20;;;;;;;11.88;5.10;;;;;;;33.90;64.97;154581.59;5071593;28;20177;-61
2022/07/23 06:29:47;;;;;;;8.18;4.90;;;;;;;34.18;66.67;154652.28;5072358;28;20295;-60
2022/07/23 06:32:15;;;;;;;8.13;4.35;;;;;;;34.52;66.44;154739.63;5075801;28;20646;-61
2022/07/23 06:34:42;;;;;;;11.60;4.85;;;;;;;34.37;66.07;154701.13;5075381;28;20184;-60
2022/07/23 06:37:09;;;;;;;8.15;4.68;;;;;;;33.94;69.67;154593.16;5075449;28;20189;-60
2022/07/23 06:39:36;;;;;;;9.13;5.18;;;;;;;34.01;69.20;154608.53;5075784;28;20551;-59
2022/07/23 06:42:02;;;;;;;5.47;4.93;;;;;;;34.36;67.11;154698.53;5075350;28;20216;-60
2022/07/23 06:44:29;;;;;;;7.82;4.72;;;;;;;34.96;63.64;154850.19;5075622;28;20196;-61
2022/07/23 06:46:56;;;;;;;8.30;4.07;;;;;;;35.66;59.87;155030.22;5075299;28;20197;-61
2022/07/23 06:49:24;;;;;;;10.27;4.88;;;;;;;36.21;57.96;155167.84;5074990;28;20227;-61
2022/07/23 06:51:51;;;;;;;6.78;4.85;;;;;;;36.34;55.87;155202.56;5075346;28;20193;-60
2022/07/23 06:54:18;;;;;;;11.80;4.70;;;;;;;36.29;54.64;155188.41;5075230;28;20189;-61
2022/07/23 06:56:45;;;;;;;6.03;4.15;;;;;;;36.34;55.71;155202.56;5075374;28;20650;-61
2022/07/23 06:59:12;;;;;;;9.88;4.47;;;;;;;35.76;56.41;155053.38;5075304;28;20519;-61
2022/07/23 07:01:39;;;;;;;13.25;4.68;;;;;;;35.94;56.75;155099.69;5075037;28;20193;-61
2022/07/23 07:04:06;;;;;;;7.95;4.53;;;;;;;35.67;57.79;155032.81;5075772;28;20201;-61
2022/07/23 07:06:34;;;;;;;7.88;4.00;;;;;;;35.52;55.81;154994.16;5075944;28;20193;-60
2022/07/23 07:09:01;;;;;;;4.70;4.15;;;;;;;35.60;55.65;155014.78;5075170;28;20536;-61
2022/07/23 07:11:28;;;;;;;8.38;4.57;;;;;;;35.77;52.86;155055.97;5074801;28;20236;-61
2022/07/23 07:13:55;;;;;;;14.48;4.13;;;;;;;35.91;52.55;155093.22;5075263;28;20193;-61
2022/07/23 07:16:22;;;;;;;7.70;4.53;;;;;;;35.84;54.69;155075.22;5074877;28;20189;-61
2022/07/23 07:18:49;;;;;;;6.13;4.20;;;;;;;35.53;56.52;154996.75;5074826;28;20216;-60
2022/07/23 07:21:16;;;;;;;17.67;4.97;;;;;;;35.18;57.16;154908.06;5074766;28;20188;-59
2022/07/23 07:23:44;;;;;;;9.43;4.55;;;;;;;35.09;58.41;154883.63;5074763;28;20210;-60
2022/07/23 07:26:11;;;;;;;13.80;5.55;;;;;;;34.75;57.97;154797.50;5075169;28;20181;-61
2022/07/23 07:28:38;;;;;;;5.13;4.15;;;;;;;34.46;61.47;154724.19;5074369;28;20184;-60
2022/07/23 07:31:05;;;;;;;10.85;4.40;;;;;;;34.42;57.95;154713.91;5075019;28;20210;-60
2022/07/23 07:33:32;;;;;;;16.38;5.18;;;;;;;34.39;57.30;154707.50;5073264;28;20192;-60
2022/07/23 07:36:00;;;;;;;12.70;4.90;;;;;;;34.60;57.95;154760.19;5074578;28;20255;-60
2022/07/23 07:38:27;;;;;;;14.38;4.60;;;;;;;34.65;54.10;154773.09;5074477;28;20189;-61
2022/07/23 07:40:55;;;;;;;13.07;5.30;;;;;;;34.74;52.64;154796.22;5074703;28;20504;-60
2022/07/23 07:43:22;;;;;;;16.70;8.45;;;;;;;34.82;54.42;154815.50;5073875;28;20189;-60
2022/07/23 07:45:49;;;;;;;9.32;4.40;;;;;;;34.70;50.76;154785.94;5074437;28;20681;-60
2022/07/23 07:48:16;;;;;;;10.52;4.50;;;;;;;34.77;49.92;154803.91;5074457;28;20185;-61
2022/07/23 07:50:43;;;;;;;8.27;4.38;;;;;;;34.92;46.93;154841.22;5074646;28;20220;-61
2022/07/23 07:53:10;;;;;;;4.72;4.20;;;;;;;34.98;46.77;154856.59;5074343;28;20196;-60
2022/07/23 07:55:37;;;;;;;5.40;4.35;;;;;;;34.93;47.22;154842.44;5074279;28;20184;-61
2022/07/23 07:58:05;;;;;;;4.50;4.10;;;;;;;35.34;47.57;154946.63;5074285;28;20189;-61
2022/07/23 08:00:32;;;;;;;5.82;3.90;;;;;;;35.40;45.07;154963.31;5073881;28;20184;-60
2022/07/23 08:02:59;;;;;;;4.40;3.97;;;;;;;35.35;43.08;154950.47;5074503;28;20286;-61
2022/07/23 08:05:28;;;;;;;5.55;3.38;;;;;;;35.33;42.43;154945.34;5073866;28;20189;-60
2022/07/23 08:07:56;;;;;;;3.50;3.35;;;;;;;35.99;42.53;155113.78;5073899;28;20239;-61
2022/07/23 08:10:24;;;;;;;3.58;3.22;;;;;;;36.49;38.46;155239.88;5074027;28;20221;-60
2022/07/23 08:12:54;;;;;;;3.97;3.67;;;;;;;36.01;38.74;155117.66;5073777;28;20228;-61
2022/07/23 08:15:24;;;;;;;5.38;4.28;;;;;;;36.18;40.95;155161.44;5089163;28;20198;-61
2022/07/23 08:17:51;;;;;;;6.40;4.22;;;;;;;36.22;41.31;155170.41;5073987;28;20185;-61
2022/07/23 08:20:21;;;;;;;5.65;4.00;;;;;;;36.12;38.70;155145.97;5073727;28;20185;-61
2022/07/23 08:22:50;;;;;;;3.92;3.35;;;;;;;36.15;39.51;155153.72;5073883;28;20671;-61
2022/07/23 08:25:20;;;;;;;7.43;3.67;;;;;;;36.17;39.93;155160.13;5073499;28;20185;-61
2022/07/23 08:27:47;;;;;;;5.72;3.53;;;;;;;36.26;38.87;155182.00;5073678;28;20185;-60
2022/07/23 08:30:14;;;;;;;3.97;3.65;;;;;;;36.14;39.85;155152.44;5074133;28;20238;-61
2022/07/23 08:32:54;;;;;;;5.13;3.63;;;;;;;35.33;42.37;154945.34;5073328;28;20185;-61
2022/07/23 08:35:24;;;;;;;3.78;3.33;;;;;;;35.19;41.37;154909.34;5073632;28;20189;-60
2022/07/23 08:37:51;;;;;;;3.92;3.05;;;;;;;35.05;38.94;154873.34;5073124;28;20195;-61
2022/07/23 08:40:18;;;;;;;5.45;3.45;;;;;;;34.79;40.80;154809.09;5073023;28;20181;-60
2022/07/23 08:42:48;;;;;;;5.18;3.83;;;;;;;34.61;41.74;154761.47;5073240;28;20275;-61
2022/07/23 08:45:17;;;;;;;3.65;3.40;;;;;;;34.41;43.99;154711.38;5073349;28;20181;-62
2022/07/23 08:47:44;;;;;;;3.90;3.58;;;;;;;34.83;46.63;154819.34;5072983;28;20196;-61
2022/07/23 08:50:13;;;;;;;4.25;3.58;;;;;;;34.85;43.61;154824.47;5072868;28;20205;-61
2022/07/23 08:52:40;;;;;;;5.15;3.90;;;;;;;34.51;46.60;154737.06;5072977;28;20210;-60
2022/07/23 08:55:09;;;;;;;3.78;3.53;;;;;;;34.55;45.79;154747.31;5072641;28;20551;-61
2022/07/23 08:57:36;;;;;;;4.13;3.75;;;;;;;34.21;42.45;154661.25;5073361;28;20215;-60
2022/07/23 09:00:06;;;;;;;3.15;3.05;;;;;;;34.06;40.75;154621.41;5072746;28;20195;-60
2022/07/23 09:02:39;;;;;;;3.42;3.22;;;;;;;33.95;41.91;154595.69;5072805;28;20181;-61
2022/07/23 09:05:07;;;;;;;3.33;3.03;;;;;;;33.86;41.97;154572.56;5072840;28;20211;-60
2022/07/23 09:07:35;;;;;;;3.35;3.15;;;;;;;33.88;43.04;154577.72;5072512;28;20191;-61
2022/07/23 09:10:08;;;;;;;3.50;3.30;;;;;;;33.76;45.48;154545.63;5073013;28;20224;-61
2022/07/23 09:12:35;;;;;;;3.42;3.00;;;;;;;33.68;44.81;154526.38;5072229;28;20232;-62
2022/07/23 09:15:07;;;;;;;3.28;3.15;;;;;;;33.51;42.71;154482.66;5072718;28;20559;-60
2022/07/23 09:17:41;;;;;;;3.75;3.45;;;;;;;33.52;45.58;154486.47;5072733;28;20691;-61
2022/07/23 09:20:10;;;;;;;4.07;3.88;;;;;;;33.43;44.72;154462.13;5072196;28;20191;-61
2022/07/23 09:22:38;;;;;;;3.20;3.10;;;;;;;33.16;45.06;154392.75;5072372;28;20189;-60
2022/07/23 09:25:09;;;;;;;3.65;3.17;;;;;;;33.31;45.23;154431.31;5072407;28;20189;-61
2022/07/23 09:27:53;;;;;;;4.47;3.60;;;;;;;33.64;47.12;154516.03;5072510;28;20563;-61
2022/07/23 09:30:21;;;;;;;4.50;3.63;;;;;;;34.04;45.52;154617.53;5072420;28;20629;-61
2022/07/23 09:33:09;;;;;;;3.75;3.38;;;;;;;34.37;44.67;154701.13;5072417;28;20582;-60
2022/07/23 09:35:47;;;;;;;4.13;3.83;;;;;;;34.72;42.29;154791.06;5072018;28;20283;-60
2022/07/23 09:38:16;;;;;;;3.65;3.35;;;;;;;34.62;42.53;154765.34;5072057;28;20185;-60
2022/07/23 09:40:44;;;;;;;3.60;3.35;;;;;;;34.30;44.20;154684.38;5072317;28;20575;-61
2022/07/23 09:43:12;;;;;;;4.43;3.70;;;;;;;34.15;45.06;154644.53;5072042;28;20192;-61
2022/07/23 09:45:40;;;;;;;3.80;3.50;;;;;;;33.81;46.32;154559.75;5072423;28;20191;-60
2022/07/23 09:48:14;;;;;;;4.03;3.67;;;;;;;33.77;46.61;154549.50;5072726;28;20238;-59
2022/07/23 09:50:43;;;;;;;4.55;3.60;;;;;;;33.42;47.64;154460.81;5072324;28;20737;-60
2022/07/23 09:53:11;;;;;;;5.07;3.60;;;;;;;33.26;47.97;154419.75;5071801;28;20185;-61
2022/07/23 09:55:39;;;;;;;3.67;3.47;;;;;;;33.02;49.34;154359.34;5072243;28;20533;-59
2022/07/23 09:58:08;;;;;;;7.45;3.53;;;;;;;33.00;50.17;154354.22;5072753;28;20185;-60
2022/07/23 10:00:37;;;;;;;4.03;3.85;;;;;;;32.92;50.55;154333.69;5072021;28;20189;-61
2022/07/23 10:03:06;;;;;;;3.90;3.60;;;;;;;32.98;50.65;154349.06;5072752;28;20184;-61
2022/07/23 10:05:36;;;;;;;3.95;3.75;;;;;;;32.90;50.65;154328.53;5071999;28;20189;-60
2022/07/23 10:08:03;;;;;;;3.80;3.50;;;;;;;32.60;50.73;154252.75;5072081;28;20192;-60
2022/07/23 10:10:32;;;;;;;5.10;3.47;;;;;;;32.29;53.41;154171.94;5072251;28;20520;-60
2022/07/23 10:15:51;;;;;;;4.05;3.42;;;;;;;32.05;57.99;154111.53;5072039;28;20169;-60
2022/07/23 10:18:18;;;;;;;3.70;3.60;;;;;;;32.11;58.34;154128.31;5071775;28;20287;-61
2022/07/23 10:20:48;;;;;;;4.82;4.10;;;;;;;32.19;59.08;154147.53;5071952;28;20176;-61
2022/07/23 10:23:20;;;;;;;7.90;3.67;;;;;;;31.85;61.83;154061.53;5071784;28;20195;-60
2022/07/23 10:25:52;;;;;;;4.10;3.80;;;;;;;32.17;62.58;154143.69;5071871;28;20682;-60
2022/07/23 10:28:46;;;;;;;5.40;3.72;;;;;;;32.21;63.94;154151.41;5102770;28;20192;-60
2022/07/23 10:31:27;;;;;;;4.00;3.80;;;;;;;32.24;67.24;154159.09;5071492;28;20205;-61
2022/07/23 10:34:03;;;;;;;5.25;3.83;;;;;;;31.82;72.49;154053.84;5071420;28;20188;-61
2022/07/23 10:36:39;;;;;;;4.90;4.13;;;;;;;31.58;79.16;153993.53;5071670;28;20588;-61
2022/07/23 10:39:09;;;;;;;4.57;3.67;;;;;;;31.62;83.53;154002.50;5071354;28;20198;-61
2022/07/23 10:41:40;;;;;;;3.70;3.50;;;;;;;31.78;87.02;154043.59;5070227;28;20197;-61
2022/07/23 10:44:09;;;;;;;7.35;3.83;;;;;;;31.71;88.29;154026.88;5071477;28;20197;-60
2022/07/23 10:46:43;;;;;;;4.95;4.22;;;;;;;31.62;92.57;154002.50;5071770;28;20184;-61
2022/07/23 10:49:26;;;;;;;7.70;4.20;;;;;;;31.63;94.71;154005.06;5072410;28;20217;-60
2022/07/23 10:52:24;;;;;;;5.20;4.10;;;;;;;31.42;97.38;153951.16;5071176;28;20764;-61
2022/07/23 10:54:53;;;;;;;3.75;3.45;;;;;;;31.27;100.00;153915.22;5071372;28;20258;-62
2022/07/23 10:57:23;;;;;;;3.97;3.78;;;;;;;30.85;100.00;153808.75;5072124;28;20244;-60
2022/07/23 11:00:28;;;;;;;4.25;4.10;;;;;;;30.44;100.00;153702.31;5071185;28;20221;-61
2022/07/23 11:02:57;;;;;;;4.70;3.80;;;;;;;30.40;100.00;153694.66;5059915;28;20200;-61
2022/07/23 11:05:26;;;;;;;4.13;3.67;;;;;;;30.28;100.00;153663.88;5070229;28;20196;-61
2022/07/23 11:08:14;;;;;;;4.32;4.03;;;;;;;30.22;100.00;153648.47;5071489;28;20725;-61
2022/07/23 11:10:43;;;;;;;11.23;4.60;;;;;;;30.19;100.00;153640.81;5071270;28;20271;-61
2022/07/23 11:13:30;;;;;;;3.78;3.60;;;;;;;30.33;100.00;153675.44;5070857;28;20229;-61
2022/07/23 11:16:26;;;;;;;4.45;4.05;;;;;;;30.28;100.00;153663.88;5071240;28;20184;-60
2022/07/23 11:19:07;;;;;;;4.00;3.70;;;;;;;30.07;100.00;153608.78;5062236;28;20196;-61
2022/07/23 11:21:45;;;;;;;3.53;3.33;;;;;;;30.29;100.00;153665.19;5075077;28;20631;-60
2022/07/23 11:24:13;;;;;;;6.93;4.05;;;;;;;30.33;100.00;153676.72;5074687;28;20196;-61
2022/07/23 11:26:49;;;;;;;3.78;3.53;;;;;;;30.22;100.00;153647.19;5074439;28;20192;-60